Terminal Aerodrome Forecast
Issued by NWS Binghamton, NY

Home | Current Version | Previous Version | Text Only | Print | Product List | Glossary On
Versions: 1 2 3 4 5 6 7 8 9 10 11 12 13 14 15 16 17 18 19 20 21 22 23
000
FTUS41 KBGM 041100
TAFAVP
TAF
KAVP 041136Z 0412/0512 22008KT 4SM -DZ BR OVC015
      TEMPO 0412/0414 2SM -FZDZ BR OVC010
     FM041500 29008KT P6SM OVC025
     FM050100 30008KT 4SM -SN OVC015
     FM050700 31008KT P6SM OVC025=

USA.gov is the U.S. government's official web portal to all federal, state and local government web resources and services.